KVDI/VDI METAR and TAF weather

Enter ICAO airport designator
Station Type Date Time Source
KVDI METAR 2019/11/18 11:35 UTC NOAA

KVDI 181135Z AUTO 00000KT 10SM OVC032 11/08 A2988 RMK AO2


Station Type Date Time Source
KVDI Decoded METAR 2019/11/18 11:35 UTC NOAA

Vidalia, Vidalia Municipal Airport, GA, United States (KVDI) 32-11-33N 082-22-19W
Nov 18, 2019 - 06:35 AM EST / 2019.11.18 1135 UTC
Wind: Calm:0
Visibility: 10 mile(s):0
Sky conditions: overcast
Temperature: 51 F (11 C)
Dew Point: 46 F (8 C)
Relative Humidity: 81%
Pressure (altimeter): 29.88 in. Hg (1011 hPa)
ob: KVDI 181135Z AUTO 00000KT 10SM OVC032 11/08 A2988 RMK AO2
cycle: 11

Station Type Date Time Source
KVDI TAF UTC NOAA

Error!

Example: see airport list